カンザスシティ の空港の天気 - METARとTAF

カンザスシティ国際空港 ( KMCI / MCI ) - アメリカ ミズーリ州カンザスシティ
飛行場実況気象(Metar)
観測時間06/24 04:53 CDT (06/24 09:53 UTC)
風向・風速西 4m/s
視程10km以上
天気現象
全天の4割程度の雲 雲底高度 2900m
気温17.2℃
湿度93%
気圧1007hPa
METARKMCI 240953Z 27007KT 10SM SCT095 17/16 A2976 RMK AO2 SLP070 T01720161 $
過去の天気等 Google飛行場航空写真 Wunderground天気予報

過去48時間のMETAR

飛行場予報(TAF)
発表時間: 6/24 00:20 CDT (6/24 05:20 UTC)
予報対象時間: 24日1時 CDT ~ 25日1時 CDT
風向・風速西南西 4m/s
視程10km以上
全天の4割程度の雲 雲底高度 1220m
24日3時 CDT ~ 24日7時 CDT に一時的に
全天の8割程度の雲 雲底高度 760m
24日10時 CDT から
風向・風速西南西 7m/s
視程10km以上
なし
KMCI 240520Z 2406/2506 25008KT P6SM SCT040
TEMPO 2408/2412 BKN025
FM241500 25014KT P6SM SKC